ΕΜΥ, Εθνική Μετεωρολογική Υπηρεσία - Δελτία Καιρού, Προγνώσεις

ΑΕΡΟΝΑΥΤΙΛΙΑ

GREEK AIRPORTS CODES

LGKV 071550Z 30008KT 9999 FEW020 21/11 Q1021=

EUROPEAN AIRPORTS CODES

LFPO 071600Z 24005KT 180V280 CAVOK 19/07 Q1020 NOSIG=